sensor_id;sensor_type;location;lat;lon;timestamp;P1;durP1;ratioP1;P2;durP2;ratioP2
53411;SDS011;39307;52.870;13.660;2023-07-08T00:01:13;4.63;;;2.50;;
53411;SDS011;39307;52.870;13.660;2023-07-08T00:03:43;5.72;;;2.40;;
53411;SDS011;39307;52.870;13.660;2023-07-08T00:08:43;5.10;;;2.70;;
53411;SDS011;39307;52.870;13.660;2023-07-08T00:11:10;6.32;;;2.50;;
53411;SDS011;39307;52.870;13.660;2023-07-08T00:13:37;4.47;;;2.58;;
53411;SDS011;39307;52.870;13.660;2023-07-08T00:16:03;4.05;;;2.33;;
53411;SDS011;39307;52.870;13.660;2023-07-08T00:18:30;6.63;;;2.87;;
53411;SDS011;39307;52.870;13.660;2023-07-08T00:20:56;8.10;;;2.77;;
53411;SDS011;39307;52.870;13.660;2023-07-08T00:23:22;5.43;;;2.47;;
53411;SDS011;39307;52.870;13.660;2023-07-08T00:25:48;5.40;;;2.60;;
53411;SDS011;39307;52.870;13.660;2023-07-08T00:28:16;5.57;;;2.63;;
53411;SDS011;39307;52.870;13.660;2023-07-08T00:30:44;5.03;;;2.85;;
53411;SDS011;39307;52.870;13.660;2023-07-08T00:33:10;6.30;;;2.90;;
53411;SDS011;39307;52.870;13.660;2023-07-08T00:35:37;4.15;;;2.50;;
53411;SDS011;39307;52.870;13.660;2023-07-08T00:38:15;5.40;;;2.90;;
53411;SDS011;39307;52.870;13.660;2023-07-08T00:40:52;5.68;;;2.80;;
53411;SDS011;39307;52.870;13.660;2023-07-08T00:43:46;5.03;;;2.92;;
53411;SDS011;39307;52.870;13.660;2023-07-08T00:46:33;4.57;;;2.73;;
53411;SDS011;39307;52.870;13.660;2023-07-08T00:51:36;6.78;;;2.90;;
53411;SDS011;39307;52.870;13.660;2023-07-08T00:54:04;6.43;;;2.90;;
53411;SDS011;39307;52.870;13.660;2023-07-08T00:56:38;5.07;;;2.75;;
53411;SDS011;39307;52.870;13.660;2023-07-08T00:59:18;5.53;;;2.90;;
53411;SDS011;39307;52.870;13.660;2023-07-08T01:01:49;6.18;;;3.00;;
53411;SDS011;39307;52.870;13.660;2023-07-08T01:04:24;4.40;;;2.80;;
53411;SDS011;39307;52.870;13.660;2023-07-08T01:06:53;5.68;;;2.95;;
53411;SDS011;39307;52.870;13.660;2023-07-08T01:09:22;4.75;;;2.65;;
53411;SDS011;39307;52.870;13.660;2023-07-08T01:11:54;5.35;;;2.92;;
53411;SDS011;39307;52.870;13.660;2023-07-08T01:14:23;4.93;;;2.80;;
53411;SDS011;39307;52.870;13.660;2023-07-08T01:16:52;5.13;;;2.90;;
53411;SDS011;39307;52.870;13.660;2023-07-08T01:19:19;4.93;;;2.57;;
53411;SDS011;39307;52.870;13.660;2023-07-08T01:21:57;4.95;;;2.80;;
53411;SDS011;39307;52.870;13.660;2023-07-08T01:24:31;6.50;;;3.23;;
53411;SDS011;39307;52.870;13.660;2023-07-08T01:27:01;4.95;;;2.70;;
53411;SDS011;39307;52.870;13.660;2023-07-08T01:29:29;4.78;;;2.60;;
53411;SDS011;39307;52.870;13.660;2023-07-08T01:31:56;4.50;;;2.75;;
53411;SDS011;39307;52.870;13.660;2023-07-08T01:34:23;6.13;;;3.10;;
53411;SDS011;39307;52.870;13.660;2023-07-08T01:36:51;5.00;;;2.80;;
53411;SDS011;39307;52.870;13.660;2023-07-08T01:39:22;5.10;;;3.05;;
53411;SDS011;39307;52.870;13.660;2023-07-08T01:41:49;5.43;;;3.03;;
53411;SDS011;39307;52.870;13.660;2023-07-08T01:44:19;5.28;;;2.78;;
53411;SDS011;39307;52.870;13.660;2023-07-08T01:46:53;5.00;;;3.10;;
53411;SDS011;39307;52.870;13.660;2023-07-08T01:49:27;5.35;;;2.88;;
53411;SDS011;39307;52.870;13.660;2023-07-08T01:51:54;5.97;;;3.03;;
53411;SDS011;39307;52.870;13.660;2023-07-08T01:54:21;5.28;;;3.20;;
53411;SDS011;39307;52.870;13.660;2023-07-08T01:56:48;4.80;;;2.83;;
53411;SDS011;39307;52.870;13.660;2023-07-08T01:59:21;5.30;;;2.97;;
53411;SDS011;39307;52.870;13.660;2023-07-08T02:01:47;6.07;;;3.10;;
53411;SDS011;39307;52.870;13.660;2023-07-08T02:04:13;5.88;;;3.22;;
53411;SDS011;39307;52.870;13.660;2023-07-08T02:06:40;5.32;;;3.08;;
53411;SDS011;39307;52.870;13.660;2023-07-08T02:09:06;4.32;;;2.85;;
53411;SDS011;39307;52.870;13.660;2023-07-08T02:11:32;6.60;;;3.35;;
53411;SDS011;39307;52.870;13.660;2023-07-08T02:13:58;6.47;;;3.67;;
53411;SDS011;39307;52.870;13.660;2023-07-08T02:16:25;7.93;;;2.90;;
53411;SDS011;39307;52.870;13.660;2023-07-08T02:18:51;5.43;;;3.20;;
53411;SDS011;39307;52.870;13.660;2023-07-08T02:21:17;4.97;;;3.00;;
53411;SDS011;39307;52.870;13.660;2023-07-08T02:23:45;5.10;;;3.17;;
53411;SDS011;39307;52.870;13.660;2023-07-08T02:26:16;6.80;;;3.40;;
53411;SDS011;39307;52.870;13.660;2023-07-08T02:28:42;5.00;;;3.00;;
53411;SDS011;39307;52.870;13.660;2023-07-08T02:31:08;6.00;;;3.30;;
53411;SDS011;39307;52.870;13.660;2023-07-08T02:33:34;5.05;;;3.25;;
53411;SDS011;39307;52.870;13.660;2023-07-08T02:36:01;5.00;;;3.10;;
53411;SDS011;39307;52.870;13.660;2023-07-08T02:38:27;7.43;;;3.47;;
53411;SDS011;39307;52.870;13.660;2023-07-08T02:40:53;6.60;;;3.55;;
53411;SDS011;39307;52.870;13.660;2023-07-08T02:43:20;5.60;;;3.28;;
53411;SDS011;39307;52.870;13.660;2023-07-08T02:45:48;7.15;;;3.40;;
53411;SDS011;39307;52.870;13.660;2023-07-08T02:48:15;7.07;;;3.43;;
53411;SDS011;39307;52.870;13.660;2023-07-08T02:50:45;5.63;;;3.45;;
53411;SDS011;39307;52.870;13.660;2023-07-08T02:53:12;5.93;;;3.53;;
53411;SDS011;39307;52.870;13.660;2023-07-08T02:55:39;6.28;;;3.63;;
53411;SDS011;39307;52.870;13.660;2023-07-08T02:58:05;5.50;;;3.30;;
53411;SDS011;39307;52.870;13.660;2023-07-08T03:00:31;6.22;;;3.50;;
53411;SDS011;39307;52.870;13.660;2023-07-08T03:02:58;5.95;;;3.70;;
53411;SDS011;39307;52.870;13.660;2023-07-08T03:05:24;6.35;;;3.70;;
53411;SDS011;39307;52.870;13.660;2023-07-08T03:07:51;6.40;;;3.70;;
53411;SDS011;39307;52.870;13.660;2023-07-08T03:10:17;5.63;;;3.50;;
53411;SDS011;39307;52.870;13.660;2023-07-08T03:12:44;6.05;;;3.88;;
53411;SDS011;39307;52.870;13.660;2023-07-08T03:15:10;6.93;;;4.10;;
53411;SDS011;39307;52.870;13.660;2023-07-08T03:17:36;5.93;;;4.13;;
53411;SDS011;39307;52.870;13.660;2023-07-08T03:20:02;8.25;;;4.18;;
53411;SDS011;39307;52.870;13.660;2023-07-08T03:22:29;5.97;;;4.00;;
53411;SDS011;39307;52.870;13.660;2023-07-08T03:24:55;7.57;;;4.35;;
53411;SDS011;39307;52.870;13.660;2023-07-08T03:27:21;5.80;;;3.97;;
53411;SDS011;39307;52.870;13.660;2023-07-08T03:29:47;6.25;;;3.65;;
53411;SDS011;39307;52.870;13.660;2023-07-08T03:32:13;5.53;;;3.90;;
53411;SDS011;39307;52.870;13.660;2023-07-08T03:34:39;6.07;;;4.10;;
53411;SDS011;39307;52.870;13.660;2023-07-08T03:37:05;5.55;;;4.10;;
53411;SDS011;39307;52.870;13.660;2023-07-08T03:39:32;6.15;;;4.05;;
53411;SDS011;39307;52.870;13.660;2023-07-08T03:41:58;5.85;;;4.15;;
53411;SDS011;39307;52.870;13.660;2023-07-08T03:44:25;6.50;;;3.78;;
53411;SDS011;39307;52.870;13.660;2023-07-08T03:46:51;6.77;;;3.90;;
53411;SDS011;39307;52.870;13.660;2023-07-08T03:49:18;5.03;;;3.60;;
53411;SDS011;39307;52.870;13.660;2023-07-08T03:51:45;5.45;;;3.53;;
53411;SDS011;39307;52.870;13.660;2023-07-08T03:54:12;6.43;;;3.75;;
53411;SDS011;39307;52.870;13.660;2023-07-08T03:56:39;6.00;;;3.80;;
53411;SDS011;39307;52.870;13.660;2023-07-08T03:59:05;6.72;;;4.07;;
53411;SDS011;39307;52.870;13.660;2023-07-08T04:01:32;7.20;;;3.63;;
53411;SDS011;39307;52.870;13.660;2023-07-08T04:03:58;6.28;;;3.70;;
53411;SDS011;39307;52.870;13.660;2023-07-08T04:06:25;6.40;;;3.92;;
53411;SDS011;39307;52.870;13.660;2023-07-08T04:08:52;6.20;;;3.58;;
53411;SDS011;39307;52.870;13.660;2023-07-08T04:11:19;8.68;;;4.13;;
53411;SDS011;39307;52.870;13.660;2023-07-08T04:13:46;6.78;;;3.90;;
53411;SDS011;39307;52.870;13.660;2023-07-08T04:16:33;5.82;;;3.40;;
53411;SDS011;39307;52.870;13.660;2023-07-08T04:19:15;5.57;;;3.90;;
53411;SDS011;39307;52.870;13.660;2023-07-08T04:21:42;7.07;;;3.87;;
53411;SDS011;39307;52.870;13.660;2023-07-08T04:24:10;8.25;;;4.22;;
53411;SDS011;39307;52.870;13.660;2023-07-08T04:26:38;6.43;;;3.80;;
53411;SDS011;39307;52.870;13.660;2023-07-08T04:29:07;5.57;;;3.63;;
53411;SDS011;39307;52.870;13.660;2023-07-08T04:31:41;6.00;;;4.07;;
53411;SDS011;39307;52.870;13.660;2023-07-08T04:34:08;7.40;;;4.10;;
53411;SDS011;39307;52.870;13.660;2023-07-08T04:36:35;6.37;;;3.90;;
53411;SDS011;39307;52.870;13.660;2023-07-08T04:39:03;5.67;;;3.80;;
53411;SDS011;39307;52.870;13.660;2023-07-08T04:41:30;7.72;;;3.90;;
53411;SDS011;39307;52.870;13.660;2023-07-08T04:43:57;6.30;;;3.92;;
53411;SDS011;39307;52.870;13.660;2023-07-08T04:46:28;7.35;;;4.07;;
53411;SDS011;39307;52.870;13.660;2023-07-08T04:49:03;7.45;;;3.90;;
53411;SDS011;39307;52.870;13.660;2023-07-08T04:51:30;7.22;;;4.22;;
53411;SDS011;39307;52.870;13.660;2023-07-08T04:53:56;8.02;;;4.47;;
53411;SDS011;39307;52.870;13.660;2023-07-08T04:56:22;6.22;;;4.07;;
53411;SDS011;39307;52.870;13.660;2023-07-08T04:58:51;7.70;;;4.00;;
53411;SDS011;39307;52.870;13.660;2023-07-08T05:01:17;7.35;;;4.03;;
53411;SDS011;39307;52.870;13.660;2023-07-08T05:03:43;9.32;;;5.00;;
53411;SDS011;39307;52.870;13.660;2023-07-08T05:06:10;6.80;;;4.15;;
53411;SDS011;39307;52.870;13.660;2023-07-08T05:08:36;7.88;;;4.28;;
53411;SDS011;39307;52.870;13.660;2023-07-08T05:11:02;8.13;;;4.07;;
53411;SDS011;39307;52.870;13.660;2023-07-08T05:13:28;8.57;;;4.90;;
53411;SDS011;39307;52.870;13.660;2023-07-08T05:15:54;10.32;;;6.10;;
53411;SDS011;39307;52.870;13.660;2023-07-08T05:18:21;8.65;;;5.60;;
53411;SDS011;39307;52.870;13.660;2023-07-08T05:20:51;7.25;;;4.40;;
53411;SDS011;39307;52.870;13.660;2023-07-08T05:23:18;7.68;;;4.80;;
53411;SDS011;39307;52.870;13.660;2023-07-08T05:25:43;6.60;;;4.38;;
53411;SDS011;39307;52.870;13.660;2023-07-08T05:28:09;8.50;;;4.57;;
53411;SDS011;39307;52.870;13.660;2023-07-08T05:30:36;8.40;;;4.85;;
53411;SDS011;39307;52.870;13.660;2023-07-08T05:33:02;8.35;;;4.85;;
53411;SDS011;39307;52.870;13.660;2023-07-08T05:35:28;6.78;;;4.57;;
53411;SDS011;39307;52.870;13.660;2023-07-08T05:37:54;8.32;;;4.78;;
53411;SDS011;39307;52.870;13.660;2023-07-08T05:40:20;9.17;;;5.67;;
53411;SDS011;39307;52.870;13.660;2023-07-08T05:42:46;8.63;;;4.57;;
53411;SDS011;39307;52.870;13.660;2023-07-08T05:45:13;7.67;;;4.50;;
53411;SDS011;39307;52.870;13.660;2023-07-08T05:47:39;7.18;;;4.65;;
53411;SDS011;39307;52.870;13.660;2023-07-08T05:50:06;8.80;;;4.45;;
53411;SDS011;39307;52.870;13.660;2023-07-08T05:52:32;9.13;;;4.78;;
53411;SDS011;39307;52.870;13.660;2023-07-08T05:54:58;6.97;;;4.07;;
53411;SDS011;39307;52.870;13.660;2023-07-08T05:57:25;6.82;;;4.20;;
53411;SDS011;39307;52.870;13.660;2023-07-08T05:59:51;6.53;;;3.90;;
53411;SDS011;39307;52.870;13.660;2023-07-08T06:02:17;6.67;;;3.93;;
53411;SDS011;39307;52.870;13.660;2023-07-08T06:04:44;6.75;;;3.67;;
53411;SDS011;39307;52.870;13.660;2023-07-08T06:07:10;7.43;;;4.30;;
53411;SDS011;39307;52.870;13.660;2023-07-08T06:09:36;6.72;;;3.90;;
53411;SDS011;39307;52.870;13.660;2023-07-08T06:12:03;8.95;;;4.88;;
53411;SDS011;39307;52.870;13.660;2023-07-08T06:14:29;8.73;;;4.38;;
53411;SDS011;39307;52.870;13.660;2023-07-08T06:16:57;6.60;;;3.95;;
53411;SDS011;39307;52.870;13.660;2023-07-08T06:19:24;8.80;;;4.00;;
53411;SDS011;39307;52.870;13.660;2023-07-08T06:21:50;7.23;;;4.17;;
53411;SDS011;39307;52.870;13.660;2023-07-08T06:24:16;8.63;;;3.97;;
53411;SDS011;39307;52.870;13.660;2023-07-08T06:26:42;9.95;;;4.05;;
53411;SDS011;39307;52.870;13.660;2023-07-08T06:29:09;8.63;;;4.15;;
53411;SDS011;39307;52.870;13.660;2023-07-08T06:31:35;7.03;;;3.95;;
53411;SDS011;39307;52.870;13.660;2023-07-08T06:34:01;14.27;;;8.73;;
53411;SDS011;39307;52.870;13.660;2023-07-08T06:36:27;7.95;;;4.28;;
53411;SDS011;39307;52.870;13.660;2023-07-08T06:38:54;11.73;;;4.15;;
53411;SDS011;39307;52.870;13.660;2023-07-08T06:41:20;8.80;;;4.15;;
53411;SDS011;39307;52.870;13.660;2023-07-08T06:43:47;8.45;;;3.88;;
53411;SDS011;39307;52.870;13.660;2023-07-08T06:46:13;7.23;;;3.80;;
53411;SDS011;39307;52.870;13.660;2023-07-08T06:48:39;6.55;;;3.80;;
53411;SDS011;39307;52.870;13.660;2023-07-08T06:51:06;9.18;;;4.03;;
53411;SDS011;39307;52.870;13.660;2023-07-08T06:53:32;9.68;;;4.32;;
53411;SDS011;39307;52.870;13.660;2023-07-08T06:55:58;7.50;;;3.67;;
53411;SDS011;39307;52.870;13.660;2023-07-08T06:58:25;6.63;;;3.70;;
53411;SDS011;39307;52.870;13.660;2023-07-08T07:00:51;7.40;;;3.88;;
53411;SDS011;39307;52.870;13.660;2023-07-08T07:03:18;7.65;;;3.40;;
53411;SDS011;39307;52.870;13.660;2023-07-08T07:05:44;9.57;;;3.63;;
53411;SDS011;39307;52.870;13.660;2023-07-08T07:08:10;7.72;;;3.78;;
53411;SDS011;39307;52.870;13.660;2023-07-08T07:10:36;6.43;;;3.60;;
53411;SDS011;39307;52.870;13.660;2023-07-08T07:13:03;5.40;;;3.30;;
53411;SDS011;39307;52.870;13.660;2023-07-08T07:15:29;7.03;;;3.30;;
53411;SDS011;39307;52.870;13.660;2023-07-08T07:17:55;8.60;;;3.40;;
53411;SDS011;39307;52.870;13.660;2023-07-08T07:20:22;6.80;;;3.03;;
53411;SDS011;39307;52.870;13.660;2023-07-08T07:22:48;7.80;;;3.60;;
53411;SDS011;39307;52.870;13.660;2023-07-08T07:25:15;7.50;;;4.15;;
53411;SDS011;39307;52.870;13.660;2023-07-08T07:27:41;6.68;;;3.28;;
53411;SDS011;39307;52.870;13.660;2023-07-08T07:30:07;6.72;;;3.10;;
53411;SDS011;39307;52.870;13.660;2023-07-08T07:32:34;6.65;;;3.25;;
53411;SDS011;39307;52.870;13.660;2023-07-08T07:35:00;7.10;;;3.53;;
53411;SDS011;39307;52.870;13.660;2023-07-08T07:37:26;7.07;;;2.95;;
53411;SDS011;39307;52.870;13.660;2023-07-08T07:39:52;5.97;;;2.85;;
53411;SDS011;39307;52.870;13.660;2023-07-08T07:42:19;6.10;;;3.03;;
53411;SDS011;39307;52.870;13.660;2023-07-08T07:44:45;5.20;;;2.95;;
53411;SDS011;39307;52.870;13.660;2023-07-08T07:47:12;11.55;;;3.42;;
53411;SDS011;39307;52.870;13.660;2023-07-08T07:49:38;6.72;;;3.10;;
53411;SDS011;39307;52.870;13.660;2023-07-08T07:52:05;6.63;;;2.97;;
53411;SDS011;39307;52.870;13.660;2023-07-08T07:54:31;5.30;;;3.03;;
53411;SDS011;39307;52.870;13.660;2023-07-08T07:56:58;6.60;;;2.80;;
53411;SDS011;39307;52.870;13.660;2023-07-08T07:59:24;7.47;;;2.90;;
53411;SDS011;39307;52.870;13.660;2023-07-08T08:01:51;6.43;;;3.10;;
53411;SDS011;39307;52.870;13.660;2023-07-08T08:04:17;5.80;;;2.60;;
53411;SDS011;39307;52.870;13.660;2023-07-08T08:06:43;5.03;;;2.75;;
53411;SDS011;39307;52.870;13.660;2023-07-08T08:09:09;6.35;;;2.90;;
53411;SDS011;39307;52.870;13.660;2023-07-08T08:11:35;4.55;;;2.53;;
53411;SDS011;39307;52.870;13.660;2023-07-08T08:14:01;4.57;;;2.50;;
53411;SDS011;39307;52.870;13.660;2023-07-08T08:16:27;6.57;;;2.80;;
53411;SDS011;39307;52.870;13.660;2023-07-08T08:18:54;5.15;;;2.53;;
53411;SDS011;39307;52.870;13.660;2023-07-08T08:21:20;4.50;;;2.50;;
53411;SDS011;39307;52.870;13.660;2023-07-08T08:23:46;5.53;;;2.63;;
53411;SDS011;39307;52.870;13.660;2023-07-08T08:26:13;4.65;;;2.45;;
53411;SDS011;39307;52.870;13.660;2023-07-08T08:28:39;7.50;;;2.97;;
53411;SDS011;39307;52.870;13.660;2023-07-08T08:31:05;6.05;;;2.67;;
53411;SDS011;39307;52.870;13.660;2023-07-08T08:33:32;5.82;;;2.25;;
53411;SDS011;39307;52.870;13.660;2023-07-08T08:35:58;4.50;;;2.27;;
53411;SDS011;39307;52.870;13.660;2023-07-08T08:38:24;5.38;;;2.45;;
53411;SDS011;39307;52.870;13.660;2023-07-08T08:40:50;4.68;;;2.47;;
53411;SDS011;39307;52.870;13.660;2023-07-08T08:43:18;3.40;;;2.10;;
53411;SDS011;39307;52.870;13.660;2023-07-08T08:46:20;5.25;;;2.60;;
53411;SDS011;39307;52.870;13.660;2023-07-08T08:51:44;4.40;;;2.30;;
53411;SDS011;39307;52.870;13.660;2023-07-08T08:54:10;3.60;;;2.00;;
53411;SDS011;39307;52.870;13.660;2023-07-08T08:56:44;4.38;;;1.85;;
53411;SDS011;39307;52.870;13.660;2023-07-08T09:02:23;4.32;;;2.05;;
53411;SDS011;39307;52.870;13.660;2023-07-08T09:04:58;4.53;;;2.00;;
53411;SDS011;39307;52.870;13.660;2023-07-08T09:07:29;5.32;;;2.40;;
53411;SDS011;39307;52.870;13.660;2023-07-08T09:10:08;5.18;;;2.03;;
53411;SDS011;39307;52.870;13.660;2023-07-08T09:12:56;4.43;;;1.90;;
53411;SDS011;39307;52.870;13.660;2023-07-08T09:15:26;5.00;;;2.05;;
53411;SDS011;39307;52.870;13.660;2023-07-08T09:17:52;3.65;;;1.88;;
53411;SDS011;39307;52.870;13.660;2023-07-08T09:20:25;5.50;;;2.00;;
53411;SDS011;39307;52.870;13.660;2023-07-08T09:26:04;5.07;;;2.03;;
53411;SDS011;39307;52.870;13.660;2023-07-08T09:28:40;5.10;;;1.92;;
53411;SDS011;39307;52.870;13.660;2023-07-08T09:31:12;3.92;;;1.50;;
53411;SDS011;39307;52.870;13.660;2023-07-08T09:33:50;6.82;;;1.88;;
53411;SDS011;39307;52.870;13.660;2023-07-08T09:36:19;3.50;;;1.65;;
53411;SDS011;39307;52.870;13.660;2023-07-08T09:38:49;3.22;;;1.80;;
53411;SDS011;39307;52.870;13.660;2023-07-08T09:41:30;4.10;;;1.65;;
53411;SDS011;39307;52.870;13.660;2023-07-08T09:44:30;5.00;;;1.80;;
53411;SDS011;39307;52.870;13.660;2023-07-08T09:46:54;3.55;;;1.50;;
53411;SDS011;39307;52.870;13.660;2023-07-08T09:49:28;4.75;;;2.05;;
53411;SDS011;39307;52.870;13.660;2023-07-08T09:51:59;3.72;;;2.00;;
53411;SDS011;39307;52.870;13.660;2023-07-08T09:54:26;3.58;;;1.65;;
53411;SDS011;39307;52.870;13.660;2023-07-08T09:57:09;4.13;;;1.60;;
53411;SDS011;39307;52.870;13.660;2023-07-08T09:59:51;4.22;;;1.70;;
53411;SDS011;39307;52.870;13.660;2023-07-08T10:04:59;4.75;;;1.73;;
53411;SDS011;39307;52.870;13.660;2023-07-08T10:07:31;3.97;;;1.70;;
53411;SDS011;39307;52.870;13.660;2023-07-08T10:09:58;4.15;;;1.42;;
53411;SDS011;39307;52.870;13.660;2023-07-08T10:12:30;3.07;;;1.60;;
53411;SDS011;39307;52.870;13.660;2023-07-08T10:18:14;2.95;;;1.50;;
53411;SDS011;39307;52.870;13.660;2023-07-08T10:20:51;3.05;;;1.60;;
53411;SDS011;39307;52.870;13.660;2023-07-08T10:26:27;3.67;;;1.80;;
53411;SDS011;39307;52.870;13.660;2023-07-08T10:31:45;3.53;;;1.70;;
53411;SDS011;39307;52.870;13.660;2023-07-08T10:34:39;4.40;;;1.50;;
53411;SDS011;39307;52.870;13.660;2023-07-08T10:45:49;4.13;;;1.70;;
53411;SDS011;39307;52.870;13.660;2023-07-08T10:54:13;2.60;;;1.40;;
53411;SDS011;39307;52.870;13.660;2023-07-08T10:57:12;3.60;;;1.80;;
53411;SDS011;39307;52.870;13.660;2023-07-08T11:05:40;3.10;;;1.50;;
53411;SDS011;39307;52.870;13.660;2023-07-08T11:11:27;2.90;;;1.50;;
53411;SDS011;39307;52.870;13.660;2023-07-08T11:14:09;4.07;;;1.80;;
53411;SDS011;39307;52.870;13.660;2023-07-08T11:16:42;2.60;;;1.60;;
53411;SDS011;39307;52.870;13.660;2023-07-08T11:19:21;4.00;;;1.55;;
53411;SDS011;39307;52.870;13.660;2023-07-08T11:22:00;4.18;;;1.70;;
53411;SDS011;39307;52.870;13.660;2023-07-08T11:24:48;2.30;;;1.30;;
53411;SDS011;39307;52.870;13.660;2023-07-08T11:27:24;3.28;;;1.55;;
53411;SDS011;39307;52.870;13.660;2023-07-08T11:32:36;3.80;;;1.55;;
53411;SDS011;39307;52.870;13.660;2023-07-08T11:35:05;3.83;;;1.80;;
53411;SDS011;39307;52.870;13.660;2023-07-08T11:37:42;3.17;;;1.60;;
53411;SDS011;39307;52.870;13.660;2023-07-08T11:40:20;4.68;;;1.52;;
53411;SDS011;39307;52.870;13.660;2023-07-08T11:42:51;3.75;;;1.58;;
53411;SDS011;39307;52.870;13.660;2023-07-08T11:45:38;4.65;;;1.67;;
53411;SDS011;39307;52.870;13.660;2023-07-08T11:48:12;4.60;;;1.73;;
53411;SDS011;39307;52.870;13.660;2023-07-08T11:50:46;11.38;;;2.30;;
53411;SDS011;39307;52.870;13.660;2023-07-08T11:53:36;4.18;;;1.50;;
53411;SDS011;39307;52.870;13.660;2023-07-08T11:56:17;5.20;;;1.77;;
53411;SDS011;39307;52.870;13.660;2023-07-08T12:03:51;4.32;;;1.45;;
53411;SDS011;39307;52.870;13.660;2023-07-08T12:08:54;3.92;;;1.70;;
53411;SDS011;39307;52.870;13.660;2023-07-08T12:11:31;2.75;;;1.50;;
53411;SDS011;39307;52.870;13.660;2023-07-08T12:14:00;2.70;;;1.50;;
53411;SDS011;39307;52.870;13.660;2023-07-08T12:16:28;3.30;;;1.50;;
53411;SDS011;39307;52.870;13.660;2023-07-08T12:19:01;3.70;;;1.40;;
53411;SDS011;39307;52.870;13.660;2023-07-08T12:21:30;4.00;;;1.60;;
53411;SDS011;39307;52.870;13.660;2023-07-08T12:24:04;4.43;;;1.45;;
53411;SDS011;39307;52.870;13.660;2023-07-08T12:26:34;2.75;;;1.42;;
53411;SDS011;39307;52.870;13.660;2023-07-08T12:29:01;2.95;;;1.40;;
53411;SDS011;39307;52.870;13.660;2023-07-08T12:31:28;3.40;;;1.30;;
53411;SDS011;39307;52.870;13.660;2023-07-08T12:33:54;2.72;;;1.42;;
53411;SDS011;39307;52.870;13.660;2023-07-08T12:36:22;3.15;;;1.48;;
53411;SDS011;39307;52.870;13.660;2023-07-08T12:38:53;3.05;;;1.25;;
53411;SDS011;39307;52.870;13.660;2023-07-08T12:41:25;3.65;;;1.67;;
53411;SDS011;39307;52.870;13.660;2023-07-08T12:43:55;3.00;;;1.60;;
53411;SDS011;39307;52.870;13.660;2023-07-08T12:46:21;3.43;;;1.37;;
53411;SDS011;39307;52.870;13.660;2023-07-08T12:48:49;3.13;;;1.73;;
53411;SDS011;39307;52.870;13.660;2023-07-08T12:51:16;4.22;;;1.45;;
53411;SDS011;39307;52.870;13.660;2023-07-08T12:53:47;3.28;;;1.50;;
53411;SDS011;39307;52.870;13.660;2023-07-08T12:56:14;4.65;;;1.52;;
53411;SDS011;39307;52.870;13.660;2023-07-08T12:58:42;2.92;;;1.40;;
53411;SDS011;39307;52.870;13.660;2023-07-08T13:01:21;2.38;;;1.35;;
53411;SDS011;39307;52.870;13.660;2023-07-08T13:03:51;3.63;;;1.52;;
53411;SDS011;39307;52.870;13.660;2023-07-08T13:06:21;4.30;;;1.60;;
53411;SDS011;39307;52.870;13.660;2023-07-08T13:08:53;3.38;;;1.48;;
53411;SDS011;39307;52.870;13.660;2023-07-08T13:11:23;3.10;;;1.50;;
53411;SDS011;39307;52.870;13.660;2023-07-08T13:13:50;3.35;;;1.50;;
53411;SDS011;39307;52.870;13.660;2023-07-08T13:16:24;3.28;;;1.70;;
53411;SDS011;39307;52.870;13.660;2023-07-08T13:18:56;3.00;;;1.38;;
53411;SDS011;39307;52.870;13.660;2023-07-08T13:21:23;3.25;;;1.52;;
53411;SDS011;39307;52.870;13.660;2023-07-08T13:23:49;2.78;;;1.52;;
53411;SDS011;39307;52.870;13.660;2023-07-08T13:26:17;3.28;;;1.67;;
53411;SDS011;39307;52.870;13.660;2023-07-08T13:28:48;2.97;;;1.70;;
53411;SDS011;39307;52.870;13.660;2023-07-08T13:31:22;2.75;;;1.42;;
53411;SDS011;39307;52.870;13.660;2023-07-08T13:33:49;2.70;;;1.70;;
53411;SDS011;39307;52.870;13.660;2023-07-08T13:36:18;2.90;;;1.50;;
53411;SDS011;39307;52.870;13.660;2023-07-08T13:38:47;3.42;;;1.67;;
53411;SDS011;39307;52.870;13.660;2023-07-08T13:41:18;5.93;;;2.60;;
53411;SDS011;39307;52.870;13.660;2023-07-08T13:43:49;9.43;;;2.85;;
53411;SDS011;39307;52.870;13.660;2023-07-08T13:46:29;2.85;;;1.55;;
53411;SDS011;39307;52.870;13.660;2023-07-08T13:49:07;3.42;;;1.60;;
53411;SDS011;39307;52.870;13.660;2023-07-08T13:51:39;3.35;;;1.58;;
53411;SDS011;39307;52.870;13.660;2023-07-08T13:54:14;3.42;;;1.70;;
53411;SDS011;39307;52.870;13.660;2023-07-08T13:56:47;3.55;;;1.52;;
53411;SDS011;39307;52.870;13.660;2023-07-08T13:59:24;2.90;;;1.50;;
53411;SDS011;39307;52.870;13.660;2023-07-08T14:01:52;4.07;;;1.60;;
53411;SDS011;39307;52.870;13.660;2023-07-08T14:04:31;4.90;;;1.57;;
53411;SDS011;39307;52.870;13.660;2023-07-08T14:07:00;3.45;;;1.52;;
53411;SDS011;39307;52.870;13.660;2023-07-08T14:09:26;2.85;;;1.60;;
53411;SDS011;39307;52.870;13.660;2023-07-08T14:11:53;3.30;;;1.67;;
53411;SDS011;39307;52.870;13.660;2023-07-08T14:14:19;3.55;;;1.45;;
53411;SDS011;39307;52.870;13.660;2023-07-08T14:16:46;3.63;;;1.70;;
53411;SDS011;39307;52.870;13.660;2023-07-08T14:19:25;3.85;;;2.17;;
53411;SDS011;39307;52.870;13.660;2023-07-08T14:21:57;15.77;;;3.08;;
53411;SDS011;39307;52.870;13.660;2023-07-08T14:24:27;4.93;;;2.47;;
53411;SDS011;39307;52.870;13.660;2023-07-08T14:26:53;3.30;;;1.60;;
53411;SDS011;39307;52.870;13.660;2023-07-08T14:29:19;4.20;;;1.80;;
53411;SDS011;39307;52.870;13.660;2023-07-08T14:31:45;3.88;;;1.80;;
53411;SDS011;39307;52.870;13.660;2023-07-08T14:34:13;4.28;;;1.77;;
53411;SDS011;39307;52.870;13.660;2023-07-08T14:36:46;3.53;;;1.67;;
53411;SDS011;39307;52.870;13.660;2023-07-08T14:39:16;4.95;;;1.75;;
53411;SDS011;39307;52.870;13.660;2023-07-08T14:41:43;3.58;;;1.80;;
53411;SDS011;39307;52.870;13.660;2023-07-08T14:44:20;2.58;;;1.60;;
53411;SDS011;39307;52.870;13.660;2023-07-08T14:46:48;2.80;;;1.60;;
53411;SDS011;39307;52.870;13.660;2023-07-08T14:49:15;2.63;;;1.50;;
53411;SDS011;39307;52.870;13.660;2023-07-08T14:51:43;3.45;;;1.75;;
53411;SDS011;39307;52.870;13.660;2023-07-08T14:54:10;3.75;;;1.90;;
53411;SDS011;39307;52.870;13.660;2023-07-08T14:56:36;5.72;;;1.90;;
53411;SDS011;39307;52.870;13.660;2023-07-08T14:59:03;3.28;;;1.67;;
53411;SDS011;39307;52.870;13.660;2023-07-08T15:01:29;5.17;;;1.87;;
53411;SDS011;39307;52.870;13.660;2023-07-08T15:03:56;4.35;;;1.83;;
53411;SDS011;39307;52.870;13.660;2023-07-08T15:06:23;3.83;;;1.70;;
53411;SDS011;39307;52.870;13.660;2023-07-08T15:08:50;3.20;;;1.55;;
53411;SDS011;39307;52.870;13.660;2023-07-08T15:11:16;4.18;;;1.92;;
53411;SDS011;39307;52.870;13.660;2023-07-08T15:13:43;3.65;;;1.67;;
53411;SDS011;39307;52.870;13.660;2023-07-08T15:16:13;3.22;;;1.70;;
53411;SDS011;39307;52.870;13.660;2023-07-08T15:18:42;4.20;;;1.90;;
53411;SDS011;39307;52.870;13.660;2023-07-08T15:21:11;5.50;;;2.53;;
53411;SDS011;39307;52.870;13.660;2023-07-08T15:23:39;9.97;;;4.07;;
53411;SDS011;39307;52.870;13.660;2023-07-08T15:26:08;21.80;;;3.42;;
53411;SDS011;39307;52.870;13.660;2023-07-08T15:28:38;6.03;;;1.70;;
53411;SDS011;39307;52.870;13.660;2023-07-08T15:31:17;4.47;;;1.70;;
53411;SDS011;39307;52.870;13.660;2023-07-08T15:33:47;3.25;;;1.70;;
53411;SDS011;39307;52.870;13.660;2023-07-08T15:36:13;3.50;;;1.60;;
53411;SDS011;39307;52.870;13.660;2023-07-08T15:38:40;3.72;;;1.95;;
53411;SDS011;39307;52.870;13.660;2023-07-08T15:41:10;8.32;;;2.50;;
53411;SDS011;39307;52.870;13.660;2023-07-08T15:43:42;3.63;;;1.83;;
53411;SDS011;39307;52.870;13.660;2023-07-08T15:46:08;3.67;;;1.98;;